createdAt,value
2023-04-11T00:00:26.483Z,94.23
2023-04-11T00:02:55.096Z,96.17
2023-04-11T00:05:22.741Z,94.02
2023-04-11T00:07:50.865Z,94.11
2023-04-11T00:10:18.469Z,95.89
2023-04-11T00:12:45.900Z,96.84
2023-04-11T00:15:13.552Z,97.94
2023-04-11T00:17:41.687Z,96.17
2023-04-11T00:20:11.125Z,99.13
2023-04-11T00:22:39.145Z,98.51
2023-04-11T00:25:07.420Z,98.66
2023-04-11T00:27:34.941Z,99.16
2023-04-11T00:30:02.764Z,98.43
2023-04-11T00:32:30.743Z,98.99
2023-04-11T00:34:58.291Z,99.24
2023-04-11T00:37:25.728Z,98.93
2023-04-11T00:39:55.994Z,99.18
2023-04-11T00:42:23.623Z,98.24
2023-04-11T00:44:51.529Z,99.26
2023-04-11T00:47:19.780Z,99.42
2023-04-11T00:49:47.233Z,99.56
2023-04-11T00:52:14.909Z,99.83
2023-04-11T00:54:42.402Z,100.00
2023-04-11T00:57:10.076Z,100.00
2023-04-11T00:59:38.409Z,99.82
2023-04-11T01:02:06.253Z,100.00
2023-04-11T01:04:33.970Z,100.00
2023-04-11T01:07:06.389Z,100.00
2023-04-11T01:09:36.426Z,100.00
2023-04-11T01:12:05.623Z,100.00
2023-04-11T01:14:33.167Z,100.00
2023-04-11T01:17:02.459Z,100.00
2023-04-11T01:19:30.926Z,100.00
2023-04-11T01:22:01.253Z,100.00
2023-04-11T01:24:28.903Z,100.00
2023-04-11T01:26:57.212Z,100.00
2023-04-11T01:29:25.068Z,100.00
2023-04-11T01:31:52.534Z,100.00
2023-04-11T01:34:21.922Z,100.00
2023-04-11T01:36:49.684Z,100.00
2023-04-11T01:39:17.305Z,99.64
2023-04-11T01:41:46.873Z,100.00
2023-04-11T01:44:14.593Z,97.24
2023-04-11T01:46:43.585Z,96.75
2023-04-11T01:49:15.503Z,97.16
2023-04-11T01:51:43.366Z,95.34
2023-04-11T01:54:11.107Z,97.72
2023-04-11T01:56:38.873Z,98.31
2023-04-11T01:59:07.181Z,98.51
2023-04-11T02:01:36.425Z,99.64
2023-04-11T02:04:04.182Z,98.26
2023-04-11T02:06:32.540Z,97.63
2023-04-11T02:09:00.131Z,98.22
2023-04-11T02:11:27.658Z,98.05
2023-04-11T02:13:55.083Z,99.64
2023-04-11T02:16:25.958Z,100.00
2023-04-11T02:18:54.362Z,100.00
2023-04-11T02:21:23.203Z,100.00
2023-04-11T02:23:50.804Z,100.00
2023-04-11T02:26:18.298Z,100.00
2023-04-11T02:28:45.784Z,100.00
2023-04-11T02:31:14.453Z,98.83
2023-04-11T02:33:44.111Z,98.81
2023-04-11T02:36:12.692Z,98.62
2023-04-11T02:38:40.537Z,98.98
2023-04-11T02:41:08.628Z,98.62
2023-04-11T02:43:36.220Z,98.52
2023-04-11T02:46:12.634Z,99.78
2023-04-11T02:48:43.728Z,99.52
2023-04-11T02:51:13.060Z,99.40
2023-04-11T02:53:41.074Z,100.00
2023-04-11T02:56:10.969Z,100.00
2023-04-11T02:58:41.968Z,100.00
2023-04-11T03:01:14.993Z,100.00
2023-04-11T03:03:43.870Z,100.00
2023-04-11T03:06:12.968Z,100.00
2023-04-11T03:08:43.137Z,100.00
2023-04-11T03:11:10.794Z,100.00
2023-04-11T03:13:39.456Z,100.00
2023-04-11T03:16:07.511Z,100.00
2023-04-11T03:18:35.422Z,100.00
2023-04-11T03:21:11.572Z,100.00
2023-04-11T03:23:44.224Z,100.00
2023-04-11T03:26:14.557Z,100.00
2023-04-11T03:28:43.831Z,100.00
2023-04-11T03:31:13.434Z,100.00
2023-04-11T03:33:41.217Z,100.00
2023-04-11T03:36:08.985Z,100.00
2023-04-11T03:38:36.831Z,100.00
2023-04-11T03:41:04.676Z,100.00
2023-04-11T03:43:33.693Z,100.00
2023-04-11T03:46:02.180Z,100.00
2023-04-11T03:48:39.463Z,100.00
2023-04-11T03:51:09.705Z,100.00
2023-04-11T03:53:46.968Z,100.00
2023-04-11T03:56:28.366Z,100.00
2023-04-11T03:58:56.243Z,100.00
2023-04-11T04:01:28.004Z,100.00
2023-04-11T04:04:01.526Z,100.00
2023-04-11T04:06:31.001Z,100.00
2023-04-11T04:09:02.460Z,100.00
2023-04-11T04:11:38.249Z,100.00
2023-04-11T04:14:06.052Z,100.00
2023-04-11T04:16:33.583Z,100.00
2023-04-11T04:19:04.972Z,99.72
2023-04-11T04:21:33.128Z,100.00
2023-04-11T04:24:03.702Z,100.00
2023-04-11T04:27:01.001Z,100.00
2023-04-11T04:29:38.553Z,100.00
2023-04-11T04:32:11.104Z,100.00
2023-04-11T04:34:49.446Z,100.00
2023-04-11T04:37:25.813Z,100.00
2023-04-11T04:40:09.220Z,100.00
2023-04-11T04:42:45.595Z,100.00
2023-04-11T04:45:13.181Z,100.00
2023-04-11T04:47:41.157Z,100.00
2023-04-11T04:50:08.997Z,100.00
2023-04-11T04:52:36.466Z,100.00
2023-04-11T04:55:04.494Z,100.00
2023-04-11T04:57:32.662Z,100.00
2023-04-11T05:00:01.604Z,100.00
2023-04-11T05:02:30.960Z,100.00
2023-04-11T05:05:04.212Z,100.00
2023-04-11T05:07:33.577Z,100.00
2023-04-11T05:10:01.149Z,100.00
2023-04-11T05:12:29.580Z,100.00
2023-04-11T05:15:02.738Z,100.00
2023-04-11T05:17:32.598Z,100.00
2023-04-11T05:20:00.651Z,100.00
2023-04-11T05:22:28.444Z,100.00
2023-04-11T05:24:57.274Z,100.00
2023-04-11T05:27:24.818Z,100.00
2023-04-11T05:29:54.293Z,100.00
2023-04-11T05:32:22.007Z,100.00
2023-04-11T05:34:57.270Z,100.00
2023-04-11T05:37:52.236Z,100.00
2023-04-11T05:40:19.761Z,100.00
2023-04-11T05:42:49.328Z,100.00
2023-04-11T05:45:16.885Z,100.00
2023-04-11T05:47:44.356Z,100.00
2023-04-11T05:50:12.024Z,100.00
2023-04-11T05:52:39.489Z,100.00
2023-04-11T05:55:07.470Z,100.00
2023-04-11T05:57:34.889Z,100.00
2023-04-11T06:00:02.825Z,100.00
2023-04-11T06:02:42.137Z,100.00
2023-04-11T06:05:12.122Z,100.00
2023-04-11T06:07:41.510Z,100.00
2023-04-11T06:10:10.075Z,100.00
2023-04-11T06:12:37.620Z,100.00
2023-04-11T06:15:06.130Z,100.00
2023-04-11T06:17:33.641Z,100.00
2023-04-11T06:20:02.993Z,100.00
2023-04-11T06:22:32.018Z,100.00
2023-04-11T06:24:59.437Z,100.00
2023-04-11T06:27:26.915Z,100.00
2023-04-11T06:29:54.557Z,100.00
2023-04-11T06:32:22.452Z,100.00
2023-04-11T06:34:49.858Z,100.00
2023-04-11T06:37:17.636Z,100.00
2023-04-11T06:39:45.074Z,100.00
2023-04-11T06:42:12.882Z,100.00
2023-04-11T06:44:48.665Z,100.00
2023-04-11T06:47:16.273Z,100.00
2023-04-11T06:49:43.711Z,100.00
2023-04-11T06:52:11.321Z,100.00
2023-04-11T06:54:39.501Z,100.00
2023-04-11T06:57:07.191Z,100.00
2023-04-11T06:59:35.061Z,100.00
2023-04-11T07:02:02.699Z,100.00
2023-04-11T07:04:30.340Z,100.00
2023-04-11T07:06:58.050Z,100.00
2023-04-11T07:09:25.505Z,100.00
2023-04-11T07:11:53.121Z,100.00
2023-04-11T07:14:20.588Z,100.00
2023-04-11T07:16:48.241Z,100.00
2023-04-11T07:19:15.795Z,100.00
2023-04-11T07:21:43.694Z,100.00
2023-04-11T07:24:13.429Z,100.00
2023-04-11T07:26:42.519Z,100.00
2023-04-11T07:29:11.627Z,100.00
2023-04-11T07:31:40.932Z,100.00
2023-04-11T07:34:08.524Z,100.00
2023-04-11T07:36:36.288Z,100.00
2023-04-11T07:39:04.689Z,100.00
2023-04-11T07:41:32.185Z,100.00
2023-04-11T07:43:59.567Z,100.00
2023-04-11T07:46:27.084Z,100.00
2023-04-11T07:48:54.507Z,100.00
2023-04-11T07:51:22.057Z,100.00
2023-04-11T07:53:49.485Z,100.00
2023-04-11T07:56:17.008Z,100.00
2023-04-11T07:58:44.498Z,100.00
2023-04-11T08:01:22.781Z,100.00
2023-04-11T08:03:50.599Z,100.00
2023-04-11T08:06:18.163Z,100.00
2023-04-11T08:08:46.868Z,100.00
2023-04-11T08:11:14.870Z,100.00
2023-04-11T08:13:43.286Z,100.00
2023-04-11T08:16:12.091Z,100.00
2023-04-11T08:18:42.428Z,100.00
2023-04-11T08:21:11.665Z,100.00
2023-04-11T08:23:42.962Z,100.00
2023-04-11T08:26:12.133Z,100.00
2023-04-11T08:28:42.445Z,100.00
2023-04-11T08:31:13.459Z,100.00
2023-04-11T08:33:41.760Z,100.00
2023-04-11T08:36:10.622Z,100.00
2023-04-11T08:38:40.271Z,100.00
2023-04-11T08:41:08.120Z,100.00
2023-04-11T08:43:36.849Z,100.00
2023-04-11T08:46:05.055Z,100.00
2023-04-11T08:48:33.160Z,100.00
2023-04-11T08:51:00.815Z,100.00
2023-04-11T08:53:30.546Z,100.00
2023-04-11T08:55:59.983Z,100.00
2023-04-11T08:58:27.469Z,100.00
2023-04-11T09:00:55.009Z,100.00
2023-04-11T09:03:22.610Z,100.00
2023-04-11T09:05:50.173Z,100.00
2023-04-11T09:08:17.760Z,100.00
2023-04-11T09:10:46.180Z,100.00
2023-04-11T09:13:25.863Z,100.00
2023-04-11T09:16:06.086Z,100.00
2023-04-11T09:18:40.567Z,100.00
2023-04-11T09:21:14.670Z,100.00
2023-04-11T09:23:42.738Z,100.00
2023-04-11T09:26:11.862Z,100.00
2023-04-11T09:28:44.955Z,100.00
2023-04-11T09:31:13.804Z,100.00
2023-04-11T09:33:54.098Z,100.00
2023-04-11T09:36:24.060Z,100.00
2023-04-11T09:38:51.957Z,100.00
2023-04-11T09:41:33.952Z,100.00
2023-04-11T09:44:02.380Z,100.00
2023-04-11T09:46:30.421Z,100.00
2023-04-11T09:48:58.250Z,100.00
2023-04-11T09:53:58.096Z,100.00
2023-04-11T09:56:26.882Z,100.00
2023-04-11T09:58:55.372Z,100.00
2023-04-11T10:01:24.530Z,100.00
2023-04-11T10:03:52.818Z,100.00
2023-04-11T10:06:31.826Z,100.00
2023-04-11T10:09:11.755Z,100.00
2023-04-11T10:11:43.572Z,100.00
2023-04-11T10:14:36.808Z,100.00
2023-04-11T10:17:23.608Z,100.00
2023-04-11T10:19:59.109Z,100.00
2023-04-11T10:22:41.888Z,100.00
2023-04-11T10:25:20.053Z,100.00
2023-04-11T10:28:00.978Z,100.00
2023-04-11T10:30:40.748Z,100.00
2023-04-11T10:33:16.862Z,100.00
2023-04-11T10:36:12.803Z,100.00
2023-04-11T10:38:41.052Z,100.00
2023-04-11T10:41:25.355Z,100.00
2023-04-11T10:44:12.107Z,100.00
2023-04-11T10:46:49.435Z,100.00
2023-04-11T10:49:37.360Z,100.00
2023-04-11T10:52:18.326Z,100.00
2023-04-11T10:54:49.138Z,100.00
2023-04-11T10:57:16.957Z,100.00
2023-04-11T10:59:44.344Z,100.00
2023-04-11T11:02:12.166Z,100.00
2023-04-11T11:04:40.741Z,100.00
2023-04-11T11:07:14.150Z,100.00
2023-04-11T11:09:41.987Z,100.00
2023-04-11T11:12:13.808Z,100.00
2023-04-11T11:14:46.243Z,100.00
2023-04-11T11:17:15.780Z,100.00
2023-04-11T11:19:47.439Z,100.00
2023-04-11T11:22:25.883Z,100.00
2023-04-11T11:24:53.669Z,100.00
2023-04-11T11:27:24.195Z,100.00
2023-04-11T11:29:53.021Z,100.00
2023-04-11T11:32:28.740Z,100.00
2023-04-11T11:34:57.961Z,100.00
2023-04-11T11:37:25.993Z,100.00
2023-04-11T11:39:53.854Z,100.00
2023-04-11T11:42:22.107Z,100.00
2023-04-11T11:44:49.684Z,100.00
2023-04-11T11:47:17.197Z,100.00
2023-04-11T11:49:48.129Z,100.00
2023-04-11T11:52:33.376Z,100.00
2023-04-11T11:55:07.571Z,100.00
2023-04-11T11:57:37.840Z,100.00
2023-04-11T12:00:06.302Z,100.00
2023-04-11T12:02:36.219Z,100.00
2023-04-11T12:05:06.408Z,100.00
2023-04-11T12:07:36.908Z,100.00
2023-04-11T12:10:08.949Z,100.00
2023-04-11T12:12:38.192Z,100.00
2023-04-11T12:15:17.200Z,100.00
2023-04-11T12:17:53.849Z,100.00
2023-04-11T12:20:26.841Z,100.00
2023-04-11T12:22:55.415Z,100.00
2023-04-11T12:25:23.258Z,100.00
2023-04-11T12:27:51.169Z,100.00
2023-04-11T12:30:19.112Z,100.00
2023-04-11T12:32:46.786Z,100.00
2023-04-11T12:35:14.527Z,100.00
2023-04-11T12:37:42.328Z,100.00
2023-04-11T12:40:13.125Z,100.00
2023-04-11T12:42:55.131Z,100.00
2023-04-11T12:45:23.979Z,100.00
2023-04-11T12:47:51.665Z,100.00
2023-04-11T12:50:19.336Z,100.00
2023-04-11T12:52:48.826Z,100.00
2023-04-11T12:55:16.504Z,100.00
2023-04-11T12:57:44.010Z,100.00
2023-04-11T13:00:13.043Z,100.00
2023-04-11T13:02:44.680Z,100.00
2023-04-11T13:05:15.650Z,100.00
2023-04-11T13:07:45.386Z,100.00
2023-04-11T13:10:16.308Z,100.00
2023-04-11T13:12:45.734Z,100.00
2023-04-11T13:15:16.411Z,100.00
2023-04-11T13:17:44.558Z,100.00
2023-04-11T13:20:13.137Z,100.00
2023-04-11T13:22:41.912Z,100.00
2023-04-11T13:25:11.167Z,100.00
2023-04-11T13:27:40.265Z,100.00
2023-04-11T13:30:09.605Z,100.00
2023-04-11T13:32:37.258Z,100.00
2023-04-11T13:35:05.991Z,100.00
2023-04-11T13:37:33.556Z,100.00
2023-04-11T13:40:01.159Z,100.00
2023-04-11T13:42:28.709Z,100.00
2023-04-11T13:44:56.258Z,100.00
2023-04-11T13:47:23.903Z,100.00
2023-04-11T13:49:51.361Z,100.00
2023-04-11T13:52:19.013Z,100.00
2023-04-11T13:54:46.433Z,100.00
2023-04-11T13:57:13.994Z,100.00
2023-04-11T13:59:41.561Z,100.00
2023-04-11T14:02:09.157Z,100.00
2023-04-11T14:04:36.709Z,100.00
2023-04-11T14:07:04.410Z,100.00
2023-04-11T14:09:31.935Z,100.00
2023-04-11T14:11:59.554Z,100.00
2023-04-11T14:14:27.156Z,100.00
2023-04-11T14:16:54.985Z,100.00
2023-04-11T14:19:24.940Z,100.00
2023-04-11T14:21:52.639Z,100.00
2023-04-11T14:24:22.497Z,100.00
2023-04-11T14:26:50.504Z,100.00
2023-04-11T14:29:19.421Z,100.00
2023-04-11T14:31:48.138Z,100.00
2023-04-11T14:34:16.689Z,100.00
2023-04-11T14:36:45.011Z,100.00
2023-04-11T14:39:12.487Z,100.00
2023-04-11T14:41:40.108Z,100.00
2023-04-11T14:44:07.653Z,100.00
2023-04-11T14:46:35.911Z,100.00
2023-04-11T14:49:03.836Z,100.00
2023-04-11T14:51:31.603Z,100.00
2023-04-11T14:54:00.021Z,100.00
2023-04-11T14:56:27.726Z,100.00
2023-04-11T14:58:55.466Z,100.00
2023-04-11T15:01:23.154Z,100.00
2023-04-11T15:03:50.784Z,100.00
2023-04-11T15:06:18.704Z,100.00
2023-04-11T15:08:46.556Z,100.00
2023-04-11T15:11:14.189Z,100.00
2023-04-11T15:13:41.666Z,100.00
2023-04-11T15:16:09.270Z,100.00
2023-04-11T15:18:36.863Z,100.00
2023-04-11T15:21:04.777Z,100.00
2023-04-11T15:23:33.410Z,100.00
2023-04-11T15:26:06.103Z,100.00
2023-04-11T15:28:36.219Z,100.00
2023-04-11T15:31:06.326Z,100.00
2023-04-11T15:33:34.603Z,100.00
2023-04-11T15:36:02.519Z,100.00
2023-04-11T15:38:30.230Z,100.00
2023-04-11T15:41:00.099Z,100.00
2023-04-11T15:43:27.871Z,100.00
2023-04-11T15:45:55.425Z,100.00
2023-04-11T15:48:22.946Z,100.00
2023-04-11T15:50:51.287Z,100.00
2023-04-11T15:53:19.018Z,100.00
2023-04-11T15:55:47.528Z,100.00
2023-04-11T15:58:15.400Z,100.00
2023-04-11T16:00:44.110Z,100.00
2023-04-11T16:03:12.077Z,100.00
2023-04-11T16:05:42.868Z,100.00
2023-04-11T16:08:10.733Z,100.00
2023-04-11T16:10:38.359Z,100.00
2023-04-11T16:13:05.968Z,100.00
2023-04-11T16:15:33.579Z,100.00
2023-04-11T16:18:01.340Z,100.00
2023-04-11T16:20:28.968Z,100.00
2023-04-11T16:22:56.568Z,100.00
2023-04-11T16:25:24.155Z,100.00
2023-04-11T16:27:52.068Z,100.00
2023-04-11T16:30:19.637Z,100.00
2023-04-11T16:32:47.245Z,100.00
2023-04-11T16:35:14.871Z,100.00
2023-04-11T16:37:42.426Z,100.00
2023-04-11T16:40:12.918Z,100.00
2023-04-11T16:42:40.626Z,100.00
2023-04-11T16:45:12.516Z,100.00
2023-04-11T16:47:40.144Z,100.00
2023-04-11T16:50:08.222Z,100.00
2023-04-11T16:52:35.998Z,100.00
2023-04-11T16:55:03.696Z,100.00
2023-04-11T16:57:33.398Z,100.00
2023-04-11T17:00:04.871Z,100.00
2023-04-11T17:02:32.728Z,100.00
2023-04-11T17:05:00.352Z,100.00
2023-04-11T17:07:28.675Z,100.00
2023-04-11T17:09:56.555Z,100.00
2023-04-11T17:12:24.152Z,100.00
2023-04-11T17:14:52.792Z,100.00
2023-04-11T17:17:20.992Z,100.00
2023-04-11T17:19:48.669Z,100.00
2023-04-11T17:22:16.615Z,100.00
2023-04-11T17:24:44.050Z,100.00
2023-04-11T17:27:12.032Z,100.00
2023-04-11T17:29:39.572Z,100.00
2023-04-11T17:32:07.350Z,100.00
2023-04-11T17:34:34.931Z,100.00
2023-04-11T17:37:02.446Z,100.00
2023-04-11T17:39:30.054Z,100.00
2023-04-11T17:41:57.987Z,100.00
2023-04-11T17:44:25.614Z,100.00
2023-04-11T17:46:54.037Z,100.00
2023-04-11T17:49:21.771Z,100.00
2023-04-11T17:51:58.623Z,100.00
2023-04-11T17:54:27.237Z,100.00
2023-04-11T17:56:55.008Z,100.00
2023-04-11T17:59:24.305Z,100.00
2023-04-11T18:01:53.608Z,100.00
2023-04-11T18:04:21.643Z,100.00
2023-04-11T18:06:49.331Z,100.00
2023-04-11T18:09:17.362Z,100.00
2023-04-11T18:11:44.978Z,100.00
2023-04-11T18:14:12.492Z,100.00
2023-04-11T18:16:40.570Z,100.00
2023-04-11T18:19:08.519Z,100.00
2023-04-11T18:21:36.151Z,100.00
2023-04-11T18:24:04.291Z,100.00
2023-04-11T18:26:31.793Z,100.00
2023-04-11T18:29:01.014Z,100.00
2023-04-11T18:31:28.619Z,100.00
2023-04-11T18:33:56.688Z,100.00
2023-04-11T18:36:25.275Z,100.00
2023-04-11T18:38:55.027Z,100.00
2023-04-11T18:41:23.115Z,100.00
2023-04-11T18:43:50.734Z,100.00
2023-04-11T18:46:18.452Z,100.00
2023-04-11T18:48:46.139Z,100.00
2023-04-11T18:51:13.693Z,100.00
2023-04-11T18:53:41.909Z,100.00
2023-04-11T18:56:09.512Z,100.00
2023-04-11T18:58:45.528Z,100.00
2023-04-11T19:01:15.557Z,100.00
2023-04-11T19:03:44.714Z,100.00
2023-04-11T19:06:13.013Z,100.00
2023-04-11T19:08:41.061Z,100.00
2023-04-11T19:11:08.607Z,100.00
2023-04-11T19:13:36.185Z,100.00
2023-04-11T19:16:03.871Z,100.00
2023-04-11T19:18:31.506Z,100.00
2023-04-11T19:20:59.028Z,100.00
2023-04-11T19:23:26.733Z,100.00
2023-04-11T19:25:54.927Z,100.00
2023-04-11T19:28:22.510Z,100.00
2023-04-11T19:30:50.066Z,100.00
2023-04-11T19:33:18.126Z,100.00
2023-04-11T19:35:45.792Z,100.00
2023-04-11T19:38:13.352Z,100.00
2023-04-11T19:40:40.896Z,100.00
2023-04-11T19:43:08.349Z,100.00
2023-04-11T19:45:35.915Z,100.00
2023-04-11T19:48:03.529Z,100.00
2023-04-11T19:50:31.027Z,100.00
2023-04-11T19:52:58.648Z,100.00
2023-04-11T19:55:27.419Z,100.00
2023-04-11T19:57:55.218Z,100.00
2023-04-11T20:00:23.547Z,100.00
2023-04-11T20:02:51.348Z,100.00
2023-04-11T20:05:20.153Z,100.00
2023-04-11T20:07:48.014Z,100.00
2023-04-11T20:10:17.474Z,100.00
2023-04-11T20:12:45.314Z,100.00
2023-04-11T20:15:12.999Z,100.00
2023-04-11T20:17:41.141Z,100.00
2023-04-11T20:20:11.572Z,100.00
2023-04-11T20:22:40.474Z,100.00
2023-04-11T20:25:09.973Z,100.00
2023-04-11T20:27:38.119Z,100.00
2023-04-11T20:30:07.914Z,100.00
2023-04-11T20:32:35.540Z,100.00
2023-04-11T20:35:03.422Z,100.00
2023-04-11T20:37:32.132Z,100.00
2023-04-11T20:39:59.774Z,100.00
2023-04-11T20:42:28.061Z,100.00
2023-04-11T20:45:03.450Z,100.00
2023-04-11T20:47:31.068Z,100.00
2023-04-11T20:50:04.176Z,100.00
2023-04-11T20:52:32.832Z,100.00
2023-04-11T20:55:01.167Z,100.00
2023-04-11T20:57:33.724Z,100.00
2023-04-11T21:00:02.889Z,100.00
2023-04-11T21:02:32.542Z,100.00
2023-04-11T21:05:00.235Z,100.00
2023-04-11T21:07:27.725Z,100.00
2023-04-11T21:09:56.508Z,100.00
2023-04-11T21:12:24.027Z,100.00
2023-04-11T21:14:51.549Z,100.00
2023-04-11T21:17:19.368Z,100.00
2023-04-11T21:19:46.920Z,100.00
2023-04-11T21:22:14.414Z,100.00
2023-04-11T21:24:41.968Z,100.00
2023-04-11T21:27:09.529Z,100.00
2023-04-11T21:29:37.125Z,100.00
2023-04-11T21:32:04.676Z,100.00
2023-04-11T21:34:32.289Z,100.00
2023-04-11T21:36:59.745Z,100.00
2023-04-11T21:39:27.450Z,100.00
2023-04-11T21:41:54.885Z,100.00
2023-04-11T21:44:22.389Z,100.00
2023-04-11T21:46:49.918Z,100.00
2023-04-11T21:49:17.428Z,100.00
2023-04-11T21:51:44.952Z,100.00
2023-04-11T21:54:12.496Z,100.00
2023-04-11T21:56:43.691Z,100.00
2023-04-11T21:59:11.346Z,100.00
2023-04-11T22:01:38.944Z,100.00
2023-04-11T22:04:10.468Z,100.00
2023-04-11T22:06:38.970Z,100.00
2023-04-11T22:09:06.389Z,100.00
2023-04-11T22:11:34.042Z,100.00
2023-04-11T22:14:02.292Z,100.00
2023-04-11T22:16:32.571Z,100.00
2023-04-11T22:19:00.922Z,100.00
2023-04-11T22:21:28.611Z,100.00
2023-04-11T22:23:57.589Z,100.00
2023-04-11T22:26:34.375Z,100.00
2023-04-11T22:29:05.775Z,100.00
2023-04-11T22:31:38.984Z,100.00
2023-04-11T22:34:09.512Z,100.00
2023-04-11T22:36:37.289Z,100.00
2023-04-11T22:39:07.032Z,100.00
2023-04-11T22:41:35.608Z,100.00
2023-04-11T22:44:03.190Z,100.00
2023-04-11T22:46:33.633Z,100.00
2023-04-11T22:49:01.172Z,100.00
2023-04-11T22:51:30.274Z,100.00
2023-04-11T22:53:58.248Z,100.00
2023-04-11T23:00:16.557Z,100.00
2023-04-11T23:02:44.721Z,100.00
2023-04-11T23:05:12.301Z,100.00
2023-04-11T23:07:39.709Z,100.00
2023-04-11T23:10:14.071Z,100.00
2023-04-11T23:12:42.172Z,100.00
2023-04-11T23:15:10.361Z,100.00
2023-04-11T23:17:38.356Z,100.00
2023-04-11T23:20:14.007Z,100.00
2023-04-11T23:22:43.970Z,100.00
2023-04-11T23:25:12.088Z,100.00
2023-04-11T23:27:39.998Z,100.00
2023-04-11T23:30:09.482Z,100.00
2023-04-11T23:32:37.028Z,100.00
2023-04-11T23:35:06.568Z,100.00
2023-04-11T23:37:33.998Z,100.00
2023-04-11T23:40:11.215Z,100.00
2023-04-11T23:42:39.411Z,100.00
2023-04-11T23:45:08.522Z,100.00
2023-04-11T23:47:36.359Z,100.00
2023-04-11T23:50:04.683Z,100.00
2023-04-11T23:52:34.394Z,100.00
2023-04-11T23:55:01.818Z,100.00
2023-04-11T23:57:29.337Z,100.00
2023-04-11T23:59:56.983Z,100.00
